OEXPH EDFH-EDFH
Flight info
| Callsign | OEXPH |
|---|---|
| Flight time | 0h 33m |
| Altitude | 3500 |
| Route | TFC |
| Aircraft | EC45/L-SY/C |
Departure
| Time | 2026-05-07 15:21 |
|---|---|
| Airport | Frankfurt-Hahn Airport (EDFH) |
Arrival
| Time | 2026-05-07 15:55 |
|---|---|
| Airport | Frankfurt-Hahn Airport (EDFH) |
| Time | Latitude | Longitude | Altitude | Speed | Heading |
|---|---|---|---|---|---|
| 2026-05-07 15:10 | 49.94353 | 7.26500 | 1651 ft | 0 kts | 123° |
| 2026-05-07 15:17 | 49.94364 | 7.26518 | 1660 ft | 9 kts | 11° |
| 2026-05-07 15:17 | 49.94413 | 7.26486 | 1663 ft | 10 kts | 330° |
| 2026-05-07 15:18 | 49.94469 | 7.26386 | 1670 ft | 10 kts | 307° |
| 2026-05-07 15:18 | 49.94500 | 7.26315 | 1679 ft | 10 kts | 307° |
| 2026-05-07 15:18 | 49.94517 | 7.26266 | 1682 ft | 1 kts | 310° |
| 2026-05-07 15:18 | 49.94519 | 7.26266 | 1683 ft | 0 kts | 309° |
| 2026-05-07 15:19 | 49.94523 | 7.26261 | 1689 ft | 2 kts | 309° |
| 2026-05-07 15:19 | 49.94525 | 7.26256 | 1684 ft | 1 kts | 309° |
| 2026-05-07 15:19 | 49.94528 | 7.26248 | 1684 ft | 2 kts | 309° |
| 2026-05-07 15:19 | 49.94532 | 7.26240 | 1690 ft | 7 kts | 309° |
| 2026-05-07 15:20 | 49.94377 | 7.25901 | 1762 ft | 65 kts | 207° |
| 2026-05-07 15:20 | 49.94088 | 7.25593 | 1774 ft | 84 kts | 212° |
| 2026-05-07 15:20 | 49.93546 | 7.25069 | 1855 ft | 97 kts | 212° |
| 2026-05-07 15:20 | 49.92941 | 7.24481 | 2001 ft | 108 kts | 213° |
| 2026-05-07 15:21 | 49.92261 | 7.23911 | 2203 ft | 112 kts | 196° |
| 2026-05-07 15:21 | 49.91515 | 7.24063 | 2504 ft | 109 kts | 153° |
| 2026-05-07 15:21 | 49.90988 | 7.24895 | 2764 ft | 109 kts | 127° |
| 2026-05-07 15:21 | 49.90707 | 7.25989 | 2728 ft | 113 kts | 89° |
| 2026-05-07 15:22 | 49.91037 | 7.27060 | 2707 ft | 113 kts | 40° |
| 2026-05-07 15:22 | 49.91705 | 7.27692 | 2700 ft | 113 kts | 28° |
| 2026-05-07 15:22 | 49.92393 | 7.28278 | 2694 ft | 112 kts | 27° |
| 2026-05-07 15:22 | 49.93070 | 7.28848 | 2691 ft | 112 kts | 28° |
| 2026-05-07 15:23 | 49.93742 | 7.29458 | 2692 ft | 111 kts | 31° |
| 2026-05-07 15:23 | 49.94401 | 7.30095 | 2691 ft | 112 kts | 30° |
| 2026-05-07 15:23 | 49.95070 | 7.30698 | 2699 ft | 111 kts | 28° |
| 2026-05-07 15:23 | 49.95772 | 7.31278 | 2531 ft | 121 kts | 24° |
| 2026-05-07 15:24 | 49.96588 | 7.31458 | 2413 ft | 115 kts | 341° |
| 2026-05-07 15:24 | 49.97128 | 7.30580 | 2287 ft | 116 kts | 300° |
| 2026-05-07 15:24 | 49.97318 | 7.29397 | 2224 ft | 115 kts | 256° |
| 2026-05-07 15:24 | 49.96842 | 7.28368 | 2080 ft | 124 kts | 221° |
| 2026-05-07 15:25 | 49.96153 | 7.27632 | 1934 ft | 119 kts | 211° |
| 2026-05-07 15:25 | 49.95445 | 7.26953 | 1763 ft | 122 kts | 214° |
| 2026-05-07 15:25 | 49.94723 | 7.26250 | 1806 ft | 122 kts | 212° |
| 2026-05-07 15:25 | 49.94005 | 7.25540 | 1906 ft | 122 kts | 213° |
| 2026-05-07 15:26 | 49.93300 | 7.24838 | 2096 ft | 119 kts | 214° |
| 2026-05-07 15:26 | 49.92609 | 7.24165 | 2282 ft | 117 kts | 208° |
| 2026-05-07 15:26 | 49.91854 | 7.23869 | 2508 ft | 115 kts | 176° |
| 2026-05-07 15:26 | 49.91158 | 7.24451 | 2643 ft | 121 kts | 134° |
| 2026-05-07 15:27 | 49.90701 | 7.25513 | 2645 ft | 121 kts | 102° |
| 2026-05-07 15:27 | 49.90939 | 7.26704 | 2649 ft | 118 kts | 47° |
| 2026-05-07 15:27 | 49.91555 | 7.27511 | 2640 ft | 120 kts | 35° |
| 2026-05-07 15:27 | 49.92220 | 7.28284 | 2642 ft | 119 kts | 36° |
| 2026-05-07 15:28 | 49.92881 | 7.29050 | 2640 ft | 119 kts | 34° |
| 2026-05-07 15:28 | 49.93570 | 7.29752 | 2644 ft | 118 kts | 32° |
| 2026-05-07 15:28 | 49.94256 | 7.30445 | 2641 ft | 118 kts | 32° |
| 2026-05-07 15:28 | 49.94944 | 7.31139 | 2640 ft | 118 kts | 32° |
| 2026-05-07 15:29 | 49.95657 | 7.31751 | 2616 ft | 117 kts | 12° |
| 2026-05-07 15:29 | 49.96412 | 7.31463 | 2584 ft | 115 kts | 319° |
| 2026-05-07 15:29 | 49.96874 | 7.30479 | 2538 ft | 114 kts | 299° |
| 2026-05-07 15:29 | 49.97067 | 7.29319 | 2381 ft | 115 kts | 259° |
| 2026-05-07 15:30 | 49.96686 | 7.28254 | 2120 ft | 111 kts | 226° |
| 2026-05-07 15:30 | 49.96070 | 7.27552 | 1868 ft | 117 kts | 213° |
| 2026-05-07 15:30 | 49.95335 | 7.26849 | 1775 ft | 119 kts | 212° |
| 2026-05-07 15:30 | 49.94665 | 7.26187 | 1894 ft | 115 kts | 213° |
| 2026-05-07 15:31 | 49.93986 | 7.25513 | 2038 ft | 116 kts | 213° |
| 2026-05-07 15:31 | 49.93318 | 7.24841 | 2267 ft | 113 kts | 214° |
| 2026-05-07 15:31 | 49.92766 | 7.24007 | 2474 ft | 112 kts | 242° |
| 2026-05-07 15:31 | 49.92585 | 7.22849 | 2689 ft | 112 kts | 261° |
| 2026-05-07 15:32 | 49.92471 | 7.21647 | 2705 ft | 114 kts | 262° |
| 2026-05-07 15:32 | 49.92354 | 7.20426 | 2707 ft | 118 kts | 261° |
| 2026-05-07 15:32 | 49.92231 | 7.19179 | 2716 ft | 116 kts | 261° |
| 2026-05-07 15:32 | 49.92107 | 7.17947 | 2707 ft | 116 kts | 261° |
| 2026-05-07 15:33 | 49.91983 | 7.16716 | 2708 ft | 115 kts | 261° |
| 2026-05-07 15:33 | 49.91859 | 7.15486 | 2707 ft | 115 kts | 261° |
| 2026-05-07 15:33 | 49.91735 | 7.14261 | 2708 ft | 115 kts | 261° |
| 2026-05-07 15:33 | 49.91612 | 7.13036 | 2714 ft | 115 kts | 261° |
| 2026-05-07 15:34 | 49.91490 | 7.11832 | 2706 ft | 115 kts | 261° |
| 2026-05-07 15:34 | 49.91375 | 7.10595 | 2707 ft | 114 kts | 267° |
| 2026-05-07 15:34 | 49.91671 | 7.09495 | 2708 ft | 116 kts | 315° |
| 2026-05-07 15:34 | 49.92410 | 7.09099 | 2709 ft | 116 kts | 3° |
| 2026-05-07 15:35 | 49.93149 | 7.09607 | 2713 ft | 117 kts | 31° |
| 2026-05-07 15:35 | 49.93820 | 7.10323 | 2708 ft | 117 kts | 34° |
| 2026-05-07 15:35 | 49.94484 | 7.11046 | 2708 ft | 117 kts | 34° |
| 2026-05-07 15:35 | 49.95148 | 7.11771 | 2708 ft | 117 kts | 34° |
| 2026-05-07 15:36 | 49.95814 | 7.12497 | 2708 ft | 117 kts | 34° |
| 2026-05-07 15:36 | 49.96470 | 7.13213 | 2708 ft | 117 kts | 34° |
| 2026-05-07 15:36 | 49.97135 | 7.13939 | 2706 ft | 117 kts | 34° |
| 2026-05-07 15:36 | 49.97802 | 7.14667 | 2707 ft | 117 kts | 34° |
| 2026-05-07 15:37 | 49.98468 | 7.15393 | 2706 ft | 117 kts | 34° |
| 2026-05-07 15:37 | 49.99134 | 7.16120 | 2705 ft | 117 kts | 34° |
| 2026-05-07 15:37 | 49.99801 | 7.16849 | 2707 ft | 117 kts | 34° |
| 2026-05-07 15:37 | 50.00468 | 7.17581 | 2711 ft | 117 kts | 36° |
| 2026-05-07 15:38 | 50.00937 | 7.18614 | 2709 ft | 120 kts | 75° |
| 2026-05-07 15:38 | 50.00797 | 7.19860 | 2716 ft | 119 kts | 118° |
| 2026-05-07 15:38 | 50.00422 | 7.20983 | 2714 ft | 119 kts | 117° |
| 2026-05-07 15:38 | 50.00048 | 7.22129 | 2716 ft | 119 kts | 117° |
| 2026-05-07 15:39 | 49.99677 | 7.23271 | 2708 ft | 118 kts | 117° |
| 2026-05-07 15:39 | 49.99305 | 7.24410 | 2708 ft | 118 kts | 117° |
| 2026-05-07 15:39 | 49.98933 | 7.25552 | 2710 ft | 118 kts | 117° |
| 2026-05-07 15:39 | 49.98561 | 7.26693 | 2712 ft | 118 kts | 117° |
| 2026-05-07 15:40 | 49.98107 | 7.27736 | 2634 ft | 117 kts | 140° |
| 2026-05-07 15:40 | 49.97362 | 7.28171 | 2337 ft | 114 kts | 178° |
| 2026-05-07 15:40 | 49.96590 | 7.27962 | 2010 ft | 113 kts | 200° |
| 2026-05-07 15:40 | 49.95905 | 7.27406 | 1779 ft | 112 kts | 212° |
| 2026-05-07 15:41 | 49.95237 | 7.26743 | 1719 ft | 116 kts | 213° |
| 2026-05-07 15:41 | 49.94550 | 7.26070 | 1860 ft | 116 kts | 213° |
| 2026-05-07 15:41 | 49.93869 | 7.25450 | 2077 ft | 114 kts | 201° |
| 2026-05-07 15:41 | 49.93088 | 7.25427 | 2324 ft | 113 kts | 165° |
| 2026-05-07 15:42 | 49.92452 | 7.26107 | 2568 ft | 111 kts | 134° |
| 2026-05-07 15:42 | 49.91899 | 7.26984 | 2676 ft | 117 kts | 135° |
| 2026-05-07 15:42 | 49.91323 | 7.27895 | 2731 ft | 119 kts | 134° |
| 2026-05-07 15:42 | 49.90742 | 7.28828 | 2720 ft | 121 kts | 135° |
| 2026-05-07 15:43 | 49.90163 | 7.29765 | 2715 ft | 120 kts | 134° |
| 2026-05-07 15:43 | 49.89597 | 7.30686 | 2713 ft | 119 kts | 134° |
| 2026-05-07 15:43 | 49.89026 | 7.31614 | 2712 ft | 119 kts | 134° |
| 2026-05-07 15:43 | 49.88458 | 7.32538 | 2710 ft | 118 kts | 134° |
| 2026-05-07 15:44 | 49.87889 | 7.33463 | 2710 ft | 118 kts | 134° |
| 2026-05-07 15:44 | 49.87323 | 7.34384 | 2710 ft | 118 kts | 134° |
| 2026-05-07 15:44 | 49.86796 | 7.35352 | 2703 ft | 119 kts | 117° |
| 2026-05-07 15:44 | 49.86771 | 7.36601 | 2715 ft | 118 kts | 68° |
| 2026-05-07 15:45 | 49.87339 | 7.37467 | 2716 ft | 116 kts | 27° |
| 2026-05-07 15:45 | 49.88122 | 7.37870 | 2709 ft | 119 kts | 14° |
| 2026-05-07 15:45 | 49.88907 | 7.38245 | 2713 ft | 118 kts | 17° |
| 2026-05-07 15:45 | 49.89689 | 7.38639 | 2709 ft | 117 kts | 17° |
| 2026-05-07 15:46 | 49.91229 | 7.39426 | 2715 ft | 117 kts | 17° |
| 2026-05-07 15:46 | 49.92004 | 7.39822 | 2705 ft | 117 kts | 17° |
| 2026-05-07 15:46 | 49.92779 | 7.40221 | 2711 ft | 117 kts | 17° |
| 2026-05-07 15:47 | 49.93550 | 7.40616 | 2711 ft | 117 kts | 17° |
| 2026-05-07 15:47 | 49.94324 | 7.41004 | 2704 ft | 117 kts | 13° |
| 2026-05-07 15:47 | 49.95066 | 7.40643 | 2708 ft | 116 kts | 312° |
| 2026-05-07 15:47 | 49.95357 | 7.39511 | 2705 ft | 115 kts | 285° |
| 2026-05-07 15:48 | 49.95577 | 7.38295 | 2719 ft | 116 kts | 285° |
| 2026-05-07 15:48 | 49.95794 | 7.37093 | 2712 ft | 116 kts | 285° |
| 2026-05-07 15:48 | 49.96009 | 7.35890 | 2714 ft | 115 kts | 285° |
| 2026-05-07 15:48 | 49.96220 | 7.34711 | 2708 ft | 115 kts | 285° |
| 2026-05-07 15:49 | 49.96434 | 7.33518 | 2708 ft | 115 kts | 285° |
| 2026-05-07 15:49 | 49.96645 | 7.32329 | 2666 ft | 113 kts | 284° |
| 2026-05-07 15:49 | 49.96838 | 7.31147 | 2535 ft | 113 kts | 283° |
| 2026-05-07 15:49 | 49.97005 | 7.29952 | 2375 ft | 113 kts | 276° |
| 2026-05-07 15:50 | 49.96889 | 7.28760 | 2222 ft | 113 kts | 248° |
| 2026-05-07 15:50 | 49.96397 | 7.27837 | 1967 ft | 112 kts | 214° |
| 2026-05-07 15:50 | 49.95730 | 7.27225 | 1805 ft | 110 kts | 213° |
| 2026-05-07 15:50 | 49.95101 | 7.26618 | 1894 ft | 108 kts | 214° |
| 2026-05-07 15:51 | 49.94492 | 7.25986 | 2050 ft | 106 kts | 219° |
| 2026-05-07 15:51 | 49.94145 | 7.24896 | 2118 ft | 121 kts | 264° |
| 2026-05-07 15:51 | 49.94351 | 7.23718 | 2421 ft | 111 kts | 298° |
| 2026-05-07 15:51 | 49.94754 | 7.22706 | 2566 ft | 111 kts | 310° |
| 2026-05-07 15:52 | 49.95463 | 7.22264 | 2557 ft | 117 kts | 1° |
| 2026-05-07 15:52 | 49.96223 | 7.22728 | 2556 ft | 119 kts | 31° |
| 2026-05-07 15:52 | 49.96899 | 7.23456 | 2552 ft | 118 kts | 34° |
| 2026-05-07 15:52 | 49.97578 | 7.24178 | 2551 ft | 118 kts | 33° |
| 2026-05-07 15:53 | 49.98160 | 7.25052 | 2540 ft | 120 kts | 62° |
| 2026-05-07 15:53 | 49.98268 | 7.26295 | 2533 ft | 119 kts | 102° |
| 2026-05-07 15:53 | 49.97926 | 7.27437 | 2592 ft | 111 kts | 133° |
| 2026-05-07 15:53 | 49.97223 | 7.27969 | 2373 ft | 117 kts | 169° |
| 2026-05-07 15:54 | 49.96442 | 7.27886 | 1991 ft | 112 kts | 201° |
| 2026-05-07 15:54 | 49.95795 | 7.27317 | 1720 ft | 96 kts | 214° |
| 2026-05-07 15:54 | 49.95305 | 7.26820 | 1713 ft | 76 kts | 215° |
| 2026-05-07 15:54 | 49.94927 | 7.26434 | 1693 ft | 55 kts | 214° |
| 2026-05-07 15:55 | 49.94673 | 7.26196 | 1689 ft | 27 kts | 210° |
| 2026-05-07 15:55 | 49.94557 | 7.26191 | 1688 ft | 15 kts | 134° |
| 2026-05-07 15:55 | 49.94480 | 7.26358 | 1680 ft | 21 kts | 128° |
| 2026-05-07 15:55 | 49.94405 | 7.26468 | 1670 ft | 10 kts | 171° |
| 2026-05-07 15:56 | 49.94371 | 7.26496 | 1660 ft | 3 kts | 94° |
| 2026-05-07 15:56 | 49.94374 | 7.26522 | 1654 ft | 3 kts | 320° |
| 2026-05-07 15:56 | 49.94372 | 7.26526 | 1651 ft | 0 kts | 304° |